createdAt,value
2019-02-22T00:01:34.465Z,29.40
2019-02-22T00:04:02.911Z,30.13
2019-02-22T00:06:31.363Z,28.53
2019-02-22T00:08:59.753Z,27.40
2019-02-22T00:11:28.151Z,26.70
2019-02-22T00:13:56.589Z,26.80
2019-02-22T00:16:24.972Z,22.30
2019-02-22T00:18:53.364Z,16.23
2019-02-22T00:21:22.057Z,21.50
2019-02-22T00:23:50.448Z,22.13
2019-02-22T00:26:18.851Z,22.20
2019-02-22T00:28:47.248Z,19.23
2019-02-22T00:31:15.613Z,21.63
2019-02-22T00:33:44.357Z,23.03
2019-02-22T00:36:14.040Z,22.27
2019-02-22T00:38:42.826Z,21.93
2019-02-22T00:41:11.199Z,19.73
2019-02-22T00:43:39.594Z,22.40
2019-02-22T00:46:07.977Z,23.23
2019-02-22T00:48:36.369Z,23.53
2019-02-22T00:51:04.705Z,21.33
2019-02-22T00:53:33.108Z,21.93
2019-02-22T00:56:01.479Z,20.10
2019-02-22T00:58:29.876Z,22.20
2019-02-22T01:00:58.284Z,21.17
2019-02-22T01:03:26.954Z,20.03
2019-02-22T01:05:55.340Z,20.43
2019-02-22T01:08:23.728Z,22.23
2019-02-22T01:10:52.383Z,22.53
2019-02-22T01:13:20.782Z,21.37
2019-02-22T01:15:49.432Z,23.33
2019-02-22T01:18:17.841Z,26.63
2019-02-22T01:20:53.971Z,21.90
2019-02-22T01:23:16.267Z,23.43
2019-02-22T01:25:44.660Z,23.70
2019-02-22T01:28:13.069Z,24.27
2019-02-22T01:30:41.485Z,19.97
2019-02-22T01:33:09.870Z,24.00
2019-02-22T01:35:38.255Z,18.30
2019-02-22T01:38:06.663Z,23.80
2019-02-22T01:40:43.012Z,23.83
2019-02-22T01:43:05.397Z,24.20
2019-02-22T01:45:33.776Z,24.83
2019-02-22T01:48:02.184Z,21.93
2019-02-22T01:50:30.568Z,18.83
2019-02-22T01:52:58.936Z,23.43
2019-02-22T01:55:27.317Z,23.03
2019-02-22T01:57:55.967Z,22.27
2019-02-22T02:00:24.366Z,18.57
2019-02-22T02:02:52.751Z,19.10
2019-02-22T02:05:21.184Z,21.63
2019-02-22T02:07:49.868Z,21.87
2019-02-22T02:10:18.256Z,19.47
2019-02-22T02:12:46.779Z,22.10
2019-02-22T02:15:15.139Z,23.07
2019-02-22T02:17:43.533Z,23.67
2019-02-22T02:20:11.959Z,21.30
2019-02-22T02:22:40.327Z,22.33
2019-02-22T02:25:09.981Z,24.07
2019-02-22T02:27:38.360Z,21.83
2019-02-22T02:30:08.979Z,21.93
2019-02-22T02:32:37.357Z,24.13
2019-02-22T02:35:06.489Z,21.77
2019-02-22T02:37:34.877Z,23.00
2019-02-22T02:40:03.823Z,22.73
2019-02-22T02:42:32.191Z,19.80
2019-02-22T02:45:00.605Z,22.00
2019-02-22T02:47:29.008Z,21.90
2019-02-22T02:49:57.396Z,20.53
2019-02-22T02:52:25.789Z,22.70
2019-02-22T02:54:54.528Z,20.00
2019-02-22T02:57:22.899Z,24.43
2019-02-22T02:59:51.583Z,22.67
2019-02-22T03:02:21.640Z,22.67
2019-02-22T03:04:50.033Z,23.57
2019-02-22T03:07:28.929Z,23.90
2019-02-22T03:09:57.358Z,22.03
2019-02-22T03:12:25.724Z,23.70
2019-02-22T03:14:54.136Z,23.40
2019-02-22T03:17:22.524Z,25.13
2019-02-22T03:19:50.929Z,24.10
2019-02-22T03:22:19.314Z,24.27
2019-02-22T03:24:47.752Z,25.20
2019-02-22T03:27:16.416Z,23.53
2019-02-22T03:29:44.861Z,21.70
2019-02-22T03:32:13.578Z,25.13
2019-02-22T03:34:42.051Z,23.57
2019-02-22T03:37:10.375Z,25.33
2019-02-22T03:39:38.791Z,25.23
2019-02-22T03:42:07.167Z,24.73
2019-02-22T03:44:35.591Z,23.93
2019-02-22T03:47:03.997Z,24.27
2019-02-22T03:49:32.395Z,23.60
2019-02-22T03:52:02.492Z,22.30
2019-02-22T03:54:30.893Z,21.33
2019-02-22T03:56:59.571Z,23.20
2019-02-22T03:59:28.251Z,24.07
2019-02-22T04:01:56.654Z,23.27
2019-02-22T04:04:25.331Z,24.30
2019-02-22T04:06:53.725Z,23.23
2019-02-22T04:09:22.129Z,25.77
2019-02-22T04:11:50.812Z,25.13
2019-02-22T04:14:19.210Z,23.30
2019-02-22T04:16:47.631Z,24.73
2019-02-22T04:19:16.028Z,23.73
2019-02-22T04:21:44.416Z,24.17
2019-02-22T04:24:12.793Z,21.83
2019-02-22T04:26:41.235Z,23.17
2019-02-22T04:29:09.612Z,25.87
2019-02-22T04:31:38.059Z,27.17
2019-02-22T04:34:06.424Z,24.47
2019-02-22T04:36:34.852Z,23.00
2019-02-22T04:39:04.623Z,22.97
2019-02-22T04:41:33.133Z,23.13
2019-02-22T04:44:01.805Z,24.47
2019-02-22T04:46:30.185Z,22.93
2019-02-22T04:48:58.591Z,23.60
2019-02-22T04:51:27.004Z,23.43
2019-02-22T04:53:55.385Z,24.57
2019-02-22T04:56:24.120Z,24.33
2019-02-22T04:58:52.525Z,24.20
2019-02-22T05:01:20.895Z,25.80
2019-02-22T05:03:49.311Z,22.27
2019-02-22T05:06:17.706Z,24.10
2019-02-22T05:08:46.157Z,24.10
2019-02-22T05:11:14.587Z,25.90
2019-02-22T05:13:42.991Z,24.40
2019-02-22T05:16:11.405Z,23.93
2019-02-22T05:18:39.809Z,23.90
2019-02-22T05:21:08.197Z,25.03
2019-02-22T05:23:36.638Z,23.90
2019-02-22T05:26:05.020Z,26.83
2019-02-22T05:28:33.439Z,27.97
2019-02-22T05:31:01.837Z,24.50
2019-02-22T05:33:30.239Z,24.57
2019-02-22T05:35:58.619Z,24.03
2019-02-22T05:38:27.024Z,23.50
2019-02-22T05:40:55.746Z,25.27
2019-02-22T05:43:24.169Z,24.70
2019-02-22T05:45:52.817Z,24.93
2019-02-22T05:48:21.238Z,25.07
2019-02-22T05:50:49.631Z,24.10
2019-02-22T05:53:18.030Z,25.80
2019-02-22T05:55:46.813Z,25.93
2019-02-22T05:58:15.607Z,26.10
2019-02-22T06:00:44.014Z,26.63
2019-02-22T06:03:12.397Z,24.87
2019-02-22T06:05:40.816Z,27.10
2019-02-22T06:08:09.365Z,23.87
2019-02-22T06:10:37.827Z,21.00
2019-02-22T06:13:06.194Z,22.90
2019-02-22T06:15:34.610Z,23.20
2019-02-22T06:18:03.053Z,23.17
2019-02-22T06:20:31.468Z,23.27
2019-02-22T06:22:59.852Z,22.87
2019-02-22T06:25:28.274Z,22.80
2019-02-22T06:27:56.665Z,22.13
2019-02-22T06:30:25.087Z,23.70
2019-02-22T06:32:53.481Z,24.93
2019-02-22T06:35:21.907Z,25.20
2019-02-22T06:37:50.302Z,26.73
2019-02-22T06:40:18.963Z,26.20
2019-02-22T06:42:47.398Z,24.43
2019-02-22T06:45:15.782Z,23.93
2019-02-22T06:47:44.338Z,23.67
2019-02-22T06:50:12.719Z,24.07
2019-02-22T06:52:41.413Z,23.47
2019-02-22T06:55:09.808Z,23.87
2019-02-22T06:57:38.214Z,21.00
2019-02-22T07:00:11.881Z,24.10
2019-02-22T07:02:40.302Z,19.43
2019-02-22T07:05:08.757Z,22.10
2019-02-22T07:07:37.162Z,23.87
2019-02-22T07:10:08.559Z,21.73
2019-02-22T07:12:38.597Z,23.47
2019-02-22T07:15:07.934Z,20.97
2019-02-22T07:17:36.354Z,22.13
2019-02-22T07:20:07.832Z,21.73
2019-02-22T07:22:36.256Z,24.63
2019-02-22T07:25:07.817Z,22.47
2019-02-22T07:27:36.211Z,24.87
2019-02-22T07:30:07.036Z,23.73
2019-02-22T07:32:35.440Z,24.67
2019-02-22T07:35:03.933Z,24.20
2019-02-22T07:37:32.337Z,24.97
2019-02-22T07:40:00.701Z,25.27
2019-02-22T07:42:29.081Z,25.03
2019-02-22T07:44:57.496Z,22.80
2019-02-22T07:47:25.881Z,26.00
2019-02-22T07:49:54.277Z,23.50
2019-02-22T07:52:22.691Z,24.17
2019-02-22T07:54:51.079Z,23.60
2019-02-22T07:57:19.492Z,23.73
2019-02-22T07:59:48.055Z,24.50
2019-02-22T08:02:16.391Z,22.87
2019-02-22T08:04:44.783Z,21.30
2019-02-22T08:07:13.198Z,22.87
2019-02-22T08:09:41.592Z,21.73
2019-02-22T08:12:09.997Z,25.00
2019-02-22T08:14:38.583Z,22.47
2019-02-22T08:17:06.995Z,23.33
2019-02-22T08:19:35.363Z,23.70
2019-02-22T08:22:03.780Z,24.43
2019-02-22T08:24:32.154Z,34.47
2019-02-22T08:27:00.539Z,25.83
2019-02-22T08:29:28.950Z,24.03
2019-02-22T08:31:57.335Z,23.70
2019-02-22T08:34:25.775Z,23.00
2019-02-22T08:36:54.134Z,23.07
2019-02-22T08:39:22.528Z,22.70
2019-02-22T08:41:50.917Z,23.17
2019-02-22T08:44:19.326Z,21.70
2019-02-22T08:46:47.712Z,24.10
2019-02-22T08:49:16.135Z,24.30
2019-02-22T08:51:44.807Z,23.63
2019-02-22T08:54:13.507Z,24.60
2019-02-22T08:56:41.887Z,25.17
2019-02-22T08:59:10.311Z,24.43
2019-02-22T09:01:38.696Z,23.20
2019-02-22T09:04:07.079Z,26.57
2019-02-22T09:06:35.469Z,25.40
2019-02-22T09:09:05.285Z,26.63
2019-02-22T09:11:33.684Z,24.37
2019-02-22T09:14:02.063Z,25.57
2019-02-22T09:16:32.162Z,28.23
2019-02-22T09:19:00.827Z,27.23
2019-02-22T09:21:29.218Z,25.87
2019-02-22T09:23:57.607Z,26.77
2019-02-22T09:26:26.006Z,25.53
2019-02-22T09:28:55.545Z,26.60
2019-02-22T09:31:24.381Z,27.40
2019-02-22T09:33:52.767Z,26.07
2019-02-22T09:36:21.161Z,25.47
2019-02-22T09:38:49.560Z,25.77
2019-02-22T09:41:17.960Z,26.90
2019-02-22T09:43:54.664Z,26.00
2019-02-22T09:46:16.428Z,25.27
2019-02-22T09:48:44.850Z,25.30
2019-02-22T09:51:13.261Z,26.50
2019-02-22T09:53:41.691Z,26.53
2019-02-22T09:56:10.104Z,30.10
2019-02-22T09:58:38.509Z,26.77
2019-02-22T10:01:06.930Z,27.23
2019-02-22T10:03:35.577Z,27.37
2019-02-22T10:06:03.982Z,26.73
2019-02-22T10:08:32.373Z,27.83
2019-02-22T10:11:03.022Z,29.50
2019-02-22T10:13:31.422Z,28.03
2019-02-22T10:15:59.852Z,28.13
2019-02-22T10:18:28.253Z,29.27
2019-02-22T10:20:56.671Z,28.10
2019-02-22T10:23:25.062Z,28.63
2019-02-22T10:25:53.776Z,26.63
2019-02-22T10:28:22.177Z,29.80
2019-02-22T10:30:50.581Z,31.47
2019-02-22T10:33:18.982Z,31.87
2019-02-22T10:35:47.373Z,32.47
2019-02-22T10:38:15.804Z,30.60
2019-02-22T10:40:44.175Z,31.00
2019-02-22T10:43:12.584Z,33.97
2019-02-22T10:45:40.989Z,31.80
2019-02-22T10:48:09.411Z,29.37
2019-02-22T10:50:37.819Z,30.03
2019-02-22T10:53:06.299Z,32.13
2019-02-22T10:55:34.720Z,33.00
2019-02-22T10:58:03.148Z,33.07
2019-02-22T11:00:31.846Z,30.63
2019-02-22T11:03:00.240Z,30.00
2019-02-22T11:05:28.630Z,31.77
2019-02-22T11:07:57.049Z,31.40
2019-02-22T11:10:25.439Z,32.87
2019-02-22T11:12:53.829Z,28.83
2019-02-22T11:15:22.234Z,29.73
2019-02-22T11:17:50.653Z,30.97
2019-02-22T11:20:19.031Z,29.63
2019-02-22T11:22:47.444Z,29.63
2019-02-22T11:25:16.680Z,29.60
2019-02-22T11:27:45.090Z,28.97
2019-02-22T11:30:16.425Z,30.47
2019-02-22T11:32:44.793Z,29.43
2019-02-22T11:35:13.218Z,29.00
2019-02-22T11:37:41.591Z,28.87
2019-02-22T11:40:10.917Z,28.20
2019-02-22T11:42:39.303Z,29.73
2019-02-22T11:45:08.745Z,26.70
2019-02-22T11:47:37.144Z,29.47
2019-02-22T11:50:08.691Z,28.60
2019-02-22T11:52:37.060Z,28.90
2019-02-22T11:55:10.587Z,27.57
2019-02-22T11:57:38.986Z,30.50
2019-02-22T12:00:14.449Z,30.03
2019-02-22T12:02:45.141Z,29.43
2019-02-22T12:05:13.172Z,29.87
2019-02-22T12:07:41.567Z,31.40
2019-02-22T12:10:09.982Z,29.17
2019-02-22T12:12:38.364Z,29.00
2019-02-22T12:15:09.756Z,28.90
2019-02-22T12:17:38.119Z,29.77
2019-02-22T12:20:08.055Z,26.83
2019-02-22T12:22:36.432Z,28.43
2019-02-22T12:25:07.748Z,29.27
2019-02-22T12:27:36.158Z,28.73
2019-02-22T12:30:10.267Z,27.10
2019-02-22T12:32:39.575Z,26.20
2019-02-22T12:35:08.038Z,27.43
2019-02-22T12:37:36.427Z,27.17
2019-02-22T12:40:07.469Z,28.57
2019-02-22T12:42:35.901Z,28.57
2019-02-22T12:45:06.412Z,27.47
2019-02-22T12:47:34.976Z,27.70
2019-02-22T12:50:03.746Z,28.90
2019-02-22T12:52:32.135Z,27.17
2019-02-22T12:55:00.639Z,27.30
2019-02-22T12:57:29.488Z,28.80
2019-02-22T12:59:57.902Z,27.40
2019-02-22T13:02:26.302Z,26.87
2019-02-22T13:04:54.755Z,26.27
2019-02-22T13:07:23.139Z,26.20
2019-02-22T13:09:51.478Z,26.90
2019-02-22T13:12:20.239Z,27.57
2019-02-22T13:14:48.617Z,27.83
2019-02-22T13:17:17.030Z,25.90
2019-02-22T13:19:45.401Z,27.30
2019-02-22T13:22:13.811Z,28.17
2019-02-22T13:24:42.185Z,27.77
2019-02-22T13:27:10.591Z,28.93
2019-02-22T13:29:38.995Z,28.73
2019-02-22T13:32:07.391Z,26.97
2019-02-22T13:34:35.775Z,27.50
2019-02-22T13:37:04.182Z,27.13
2019-02-22T13:39:32.570Z,27.03
2019-02-22T13:42:00.973Z,27.67
2019-02-22T13:44:29.370Z,25.90
2019-02-22T13:46:57.786Z,27.00
2019-02-22T13:49:26.184Z,26.47
2019-02-22T13:51:54.576Z,27.10
2019-02-22T13:54:22.965Z,26.57
2019-02-22T13:56:51.654Z,26.10
2019-02-22T13:59:20.042Z,26.20
2019-02-22T14:01:48.703Z,27.17
2019-02-22T14:04:17.109Z,26.63
2019-02-22T14:06:45.490Z,27.67
2019-02-22T14:09:13.894Z,25.80
2019-02-22T14:11:42.282Z,28.60
2019-02-22T14:14:10.667Z,26.47
2019-02-22T14:16:38.993Z,27.17
2019-02-22T14:19:09.088Z,25.97
2019-02-22T14:21:37.726Z,25.33
2019-02-22T14:24:09.544Z,25.27
2019-02-22T14:26:38.050Z,24.20
2019-02-22T14:29:06.445Z,25.60
2019-02-22T14:31:41.264Z,25.00
2019-02-22T14:34:09.666Z,24.97
2019-02-22T14:36:38.041Z,23.00
2019-02-22T14:39:06.879Z,25.47
2019-02-22T14:41:37.274Z,26.40
2019-02-22T14:44:05.622Z,25.10
2019-02-22T14:46:34.009Z,26.60
2019-02-22T14:49:02.403Z,27.43
2019-02-22T14:51:30.819Z,26.13
2019-02-22T14:53:59.198Z,26.17
2019-02-22T14:56:27.618Z,27.70
2019-02-22T14:58:56.024Z,27.97
2019-02-22T15:01:24.431Z,26.60
2019-02-22T15:03:52.839Z,29.20
2019-02-22T15:06:21.258Z,26.47
2019-02-22T15:08:49.638Z,27.40
2019-02-22T15:11:18.040Z,25.20
2019-02-22T15:13:46.434Z,25.13
2019-02-22T15:16:16.786Z,25.10
2019-02-22T15:18:45.493Z,23.63
2019-02-22T15:21:13.904Z,23.40
2019-02-22T15:23:42.297Z,23.50
2019-02-22T15:26:10.735Z,23.47
2019-02-22T15:28:39.100Z,24.90
2019-02-22T15:31:07.492Z,23.00
2019-02-22T15:33:35.899Z,23.80
2019-02-22T15:36:04.855Z,24.73
2019-02-22T15:38:34.678Z,23.87
2019-02-22T15:41:03.255Z,24.13
2019-02-22T15:43:31.638Z,24.47
2019-02-22T15:46:11.503Z,23.23
2019-02-22T15:48:30.391Z,22.63
2019-02-22T15:50:58.788Z,19.83
2019-02-22T15:53:27.469Z,20.37
2019-02-22T15:55:55.842Z,18.60
2019-02-22T15:58:25.152Z,17.83
2019-02-22T16:00:53.551Z,17.77
2019-02-22T16:03:22.908Z,18.53
2019-02-22T16:05:51.284Z,17.50
2019-02-22T16:08:19.674Z,18.07
2019-02-22T16:10:48.093Z,18.03
2019-02-22T16:13:16.488Z,18.00
2019-02-22T16:15:44.896Z,16.93
2019-02-22T16:18:13.618Z,16.93
2019-02-22T16:20:42.062Z,18.73
2019-02-22T16:23:10.442Z,16.77
2019-02-22T16:25:38.851Z,17.30
2019-02-22T16:28:07.250Z,19.57
2019-02-22T16:30:36.629Z,30.57
2019-02-22T16:33:05.043Z,31.47
2019-02-22T16:35:33.431Z,33.23
2019-02-22T16:38:01.880Z,35.60
2019-02-22T16:40:30.275Z,33.87
2019-02-22T16:42:59.664Z,35.20
2019-02-22T16:45:28.139Z,36.60
2019-02-22T16:47:56.629Z,38.60
2019-02-22T16:50:25.088Z,37.77
2019-02-22T16:52:53.561Z,37.73
2019-02-22T16:55:21.966Z,39.33
2019-02-22T16:57:50.657Z,41.93
2019-02-22T17:00:19.071Z,40.63
2019-02-22T17:02:47.445Z,41.07
2019-02-22T17:05:16.620Z,43.83
2019-02-22T17:07:46.667Z,41.83
2019-02-22T17:10:15.078Z,40.43
2019-02-22T17:12:44.235Z,39.83
2019-02-22T17:15:13.773Z,44.17
2019-02-22T17:17:42.186Z,44.20
2019-02-22T17:20:12.981Z,43.33
2019-02-22T17:22:41.421Z,42.07
2019-02-22T17:25:18.075Z,41.67
2019-02-22T17:27:46.475Z,44.40
2019-02-22T17:30:16.505Z,45.53
2019-02-22T17:32:44.938Z,46.30
2019-02-22T17:35:13.345Z,45.07
2019-02-22T17:37:42.015Z,45.43
2019-02-22T17:40:13.331Z,48.40
2019-02-22T17:42:41.722Z,44.83
2019-02-22T17:45:10.167Z,45.47
2019-02-22T17:47:38.577Z,47.50
2019-02-22T17:50:09.049Z,48.00
2019-02-22T17:52:37.425Z,47.20
2019-02-22T17:55:09.610Z,48.67
2019-02-22T17:57:38.009Z,48.33
2019-02-22T18:00:17.968Z,50.33
2019-02-22T18:02:46.374Z,49.60
2019-02-22T18:05:14.802Z,48.63
2019-02-22T18:07:43.247Z,47.33
2019-02-22T18:10:11.909Z,51.07
2019-02-22T18:12:40.323Z,49.37
2019-02-22T18:15:13.830Z,49.10
2019-02-22T18:17:44.428Z,49.47
2019-02-22T18:20:12.879Z,47.97
2019-02-22T18:22:41.317Z,48.70
2019-02-22T18:25:09.929Z,50.50
2019-02-22T18:27:38.430Z,49.10
2019-02-22T18:30:10.040Z,50.47
2019-02-22T18:32:38.618Z,50.47
2019-02-22T18:35:07.694Z,52.53
2019-02-22T18:37:36.128Z,55.53
2019-02-22T18:40:08.306Z,52.23
2019-02-22T18:42:36.732Z,50.23
2019-02-22T18:45:06.469Z,48.77
2019-02-22T18:47:34.888Z,49.03
2019-02-22T18:50:03.280Z,47.33
2019-02-22T18:52:31.728Z,48.47
2019-02-22T18:55:01.753Z,47.40
2019-02-22T18:57:30.281Z,46.97
2019-02-22T19:00:01.490Z,46.00
2019-02-22T19:02:29.924Z,45.00
2019-02-22T19:04:58.305Z,45.83
2019-02-22T19:07:27.302Z,45.20
2019-02-22T19:09:55.835Z,42.80
2019-02-22T19:12:25.590Z,44.93
2019-02-22T19:14:54.028Z,44.23
2019-02-22T19:17:30.122Z,44.03
2019-02-22T19:19:53.453Z,44.53
2019-02-22T19:22:21.873Z,44.27
2019-02-22T19:24:52.381Z,43.73
2019-02-22T19:27:20.768Z,43.77
2019-02-22T19:29:49.152Z,42.50
2019-02-22T19:32:17.575Z,40.40
2019-02-22T19:34:46.051Z,43.17
2019-02-22T19:37:14.468Z,39.60
2019-02-22T19:39:42.871Z,41.47
2019-02-22T19:42:11.285Z,41.10
2019-02-22T19:44:39.699Z,43.33
2019-02-22T19:47:08.117Z,40.40
2019-02-22T19:49:36.524Z,41.63
2019-02-22T19:52:04.913Z,41.77
2019-02-22T19:54:33.322Z,41.53
2019-02-22T19:57:01.731Z,42.73
2019-02-22T19:59:30.501Z,40.87
2019-02-22T20:01:58.978Z,41.13
2019-02-22T20:04:27.443Z,43.57
2019-02-22T20:06:55.845Z,43.57
2019-02-22T20:09:24.275Z,43.23
2019-02-22T20:11:52.680Z,42.30
2019-02-22T20:14:21.066Z,42.30
2019-02-22T20:16:49.477Z,41.13
2019-02-22T20:19:17.865Z,41.40
2019-02-22T20:21:46.283Z,43.93
2019-02-22T20:24:14.680Z,46.43
2019-02-22T20:26:43.092Z,43.67
2019-02-22T20:29:11.518Z,40.87
2019-02-22T20:31:39.906Z,40.90
2019-02-22T20:34:08.604Z,43.57
2019-02-22T20:36:36.984Z,43.07
2019-02-22T20:39:06.129Z,44.37
2019-02-22T20:41:34.514Z,43.83
2019-02-22T20:44:02.931Z,42.23
2019-02-22T20:46:31.562Z,41.73
2019-02-22T20:49:01.100Z,41.17
2019-02-22T20:51:29.658Z,41.87
2019-02-22T20:53:58.380Z,39.87
2019-02-22T20:56:26.743Z,42.87
2019-02-22T20:58:55.130Z,42.67
2019-02-22T21:01:23.525Z,40.80
2019-02-22T21:03:52.236Z,40.63
2019-02-22T21:06:20.661Z,41.13
2019-02-22T21:08:49.072Z,39.87
2019-02-22T21:11:17.480Z,40.30
2019-02-22T21:13:45.870Z,40.87
2019-02-22T21:16:14.261Z,41.60
2019-02-22T21:18:42.743Z,39.40
2019-02-22T21:21:11.212Z,42.00
2019-02-22T21:23:39.579Z,44.77
2019-02-22T21:26:08.003Z,42.30
2019-02-22T21:28:36.413Z,45.07
2019-02-22T21:31:04.799Z,42.93
2019-02-22T21:33:33.190Z,42.67
2019-02-22T21:36:01.601Z,42.17
2019-02-22T21:38:30.024Z,42.00
2019-02-22T21:40:58.435Z,41.60
2019-02-22T21:43:26.823Z,43.77
2019-02-22T21:45:55.284Z,43.37
2019-02-22T21:48:27.566Z,42.80
2019-02-22T21:50:53.753Z,42.70
2019-02-22T21:53:22.179Z,42.00
2019-02-22T21:55:50.613Z,42.53
2019-02-22T21:58:19.008Z,45.13
2019-02-22T22:00:47.891Z,44.03
2019-02-22T22:03:16.309Z,43.30
2019-02-22T22:05:44.717Z,42.40
2019-02-22T22:08:13.098Z,47.57
2019-02-22T22:10:41.492Z,45.30
2019-02-22T22:13:09.877Z,45.37
2019-02-22T22:15:38.294Z,47.10
2019-02-22T22:18:06.708Z,49.27
2019-02-22T22:20:35.136Z,49.93
2019-02-22T22:23:03.504Z,49.97
2019-02-22T22:25:31.901Z,51.23
2019-02-22T22:28:00.341Z,48.20
2019-02-22T22:30:28.770Z,53.37
2019-02-22T22:32:57.168Z,50.17
2019-02-22T22:35:25.560Z,53.00
2019-02-22T22:37:53.993Z,51.40
2019-02-22T22:40:22.365Z,53.50
2019-02-22T22:42:50.774Z,55.93
2019-02-22T22:45:19.232Z,53.70
2019-02-22T22:47:47.697Z,55.93
2019-02-22T22:50:17.150Z,56.87
2019-02-22T22:52:45.565Z,58.40
2019-02-22T22:55:13.964Z,54.83
2019-02-22T22:57:42.370Z,55.37
2019-02-22T23:00:30.690Z,54.83
2019-02-22T23:02:59.096Z,56.70
2019-02-22T23:05:27.764Z,54.37
2019-02-22T23:07:56.192Z,53.93
2019-02-22T23:10:24.582Z,53.63
2019-02-22T23:12:52.991Z,56.33
2019-02-22T23:15:21.440Z,52.03
2019-02-22T23:17:49.844Z,54.27
2019-02-22T23:20:18.216Z,56.80
2019-02-22T23:22:46.606Z,56.57
2019-02-22T23:25:15.021Z,55.07
2019-02-22T23:27:43.414Z,53.70
2019-02-22T23:30:11.830Z,52.07
2019-02-22T23:32:40.194Z,54.43
2019-02-22T23:35:08.603Z,55.53
2019-02-22T23:37:37.011Z,54.27
2019-02-22T23:40:05.778Z,53.93
2019-02-22T23:42:34.162Z,55.07
2019-02-22T23:45:02.568Z,56.77
2019-02-22T23:47:30.967Z,57.47
2019-02-22T23:49:59.381Z,57.17
2019-02-22T23:52:27.760Z,54.20
2019-02-22T23:54:56.173Z,54.40
2019-02-22T23:57:24.591Z,55.17
2019-02-22T23:59:53.353Z,54.17
